Time;durP1;ratioP1;P1;durP2;ratioP2;P2;SDS_P1;SDS_P2;PMS_P1;PMS_P2;Temp;Humidity;BMP_temperature;BMP_pressure;BME280_temperature;BME280_humidity;BME280_pressure;Samples;Min_cycle;Max_cycle;Signal;HPM_P1;HPM_P2
2022/08/28 00:00:42;;;;;;;4.10;1.48;;;22.40;48.90;;;;;;4930949;29;20464;-52
2022/08/28 00:03:10;;;;;;;3.03;0.95;;;22.30;48.90;;;;;;4934960;29;20152;-52
2022/08/28 00:05:38;;;;;;;2.10;1.33;;;22.30;49.00;;;;;;4933265;29;20056;-51
2022/08/28 00:08:07;;;;;;;2.80;1.15;;;22.30;49.10;;;;;;4932928;29;20139;-51
2022/08/28 00:10:40;;;;;;;3.40;1.20;;;22.20;49.10;;;;;;4932870;29;20476;-52
2022/08/28 00:13:09;;;;;;;3.13;1.10;;;22.20;49.00;;;;;;4934362;29;20039;-50
2022/08/28 00:15:39;;;;;;;3.85;1.45;;;22.20;49.00;;;;;;4930571;29;20551;-51
2022/08/28 00:18:06;;;;;;;5.40;1.92;;;22.20;49.20;;;;;;4927160;29;20099;-52
2022/08/28 00:20:41;;;;;;;4.20;1.30;;;22.20;49.20;;;;;;4934990;29;20570;-53
2022/08/28 00:23:08;;;;;;;3.50;1.00;;;22.20;49.10;;;;;;4934577;29;20098;-50
2022/08/28 00:25:36;;;;;;;3.35;1.30;;;22.10;49.00;;;;;;4931595;29;20043;-52
2022/08/28 00:28:08;;;;;;;2.95;1.35;;;22.20;49.10;;;;;;4934938;29;20047;-52
2022/08/28 00:30:53;;;;;;;3.83;1.35;;;22.10;49.00;;;;;;4935249;29;20067;-52
2022/08/28 00:33:29;;;;;;;3.15;1.17;;;22.10;49.10;;;;;;4927280;29;20416;-52
2022/08/28 00:35:57;;;;;;;4.30;1.50;;;22.10;49.30;;;;;;4934806;29;20035;-51
2022/08/28 00:38:25;;;;;;;5.10;1.80;;;22.10;49.20;;;;;;4934163;29;20071;-53
2022/08/28 00:41:02;;;;;;;2.10;1.55;;;22.00;49.20;;;;;;4935444;29;20447;-53
2022/08/28 00:43:39;;;;;;;4.40;2.20;;;22.10;49.30;;;;;;4925771;29;20649;-49
2022/08/28 00:46:22;;;;;;;2.63;1.40;;;22.00;49.20;;;;;;4934661;29;20456;-51
2022/08/28 00:48:51;;;;;;;3.20;1.73;;;22.00;49.20;;;;;;4933738;29;20555;-48
2022/08/28 00:54:08;;;;;;;7.40;2.00;;;22.00;49.40;;;;;;4932493;29;20122;-53
2022/08/28 00:56:38;;;;;;;4.82;1.83;;;22.00;49.40;;;;;;4934370;29;20047;-52
2022/08/28 00:59:14;;;;;;;5.72;1.90;;;21.90;49.40;;;;;;4930352;29;20094;-50
2022/08/28 01:01:42;;;;;;;3.45;1.85;;;21.90;49.50;;;;;;4931675;29;20044;-49
2022/08/28 01:04:15;;;;;;;3.63;1.75;;;21.90;49.50;;;;;;4932938;29;20046;-50
2022/08/28 01:06:45;;;;;;;6.22;2.38;;;21.80;49.60;;;;;;4931676;29;20115;-53
2022/08/28 01:09:13;;;;;;;4.63;2.00;;;21.80;49.70;;;;;;4934042;29;20047;-52
2022/08/28 01:11:48;;;;;;;4.28;2.50;;;21.80;49.80;;;;;;4929453;29;20048;-51
2022/08/28 01:14:18;;;;;;;8.32;2.75;;;21.80;49.80;;;;;;4933703;29;20062;-49
2022/08/28 01:16:51;;;;;;;4.65;1.95;;;21.80;50.50;;;;;;4925924;29;20055;-50
2022/08/28 01:19:47;;;;;;;3.50;2.10;;;21.70;49.90;;;;;;4928094;29;20044;-52
2022/08/28 01:22:41;;;;;;;4.70;2.60;;;21.70;50.10;;;;;;4931162;29;20087;-49
2022/08/28 01:25:13;;;;;;;5.70;2.90;;;21.70;50.10;;;;;;4933570;29;20071;-52
2022/08/28 01:27:41;;;;;;;7.03;2.47;;;21.60;50.20;;;;;;4932062;29;20102;-52
2022/08/28 01:30:11;;;;;;;6.57;2.47;;;21.60;50.30;;;;;;4930488;29;20138;-50
2022/08/28 01:32:46;;;;;;;2.70;1.95;;;21.60;50.30;;;;;;4933547;29;20039;-53
2022/08/28 01:35:20;;;;;;;5.72;2.60;;;21.60;50.30;;;;;;4932900;29;20496;-48
2022/08/28 01:37:46;;;;;;;6.05;3.10;;;21.60;50.50;;;;;;4931317;29;20641;-50
2022/08/28 01:40:35;;;;;;;4.40;2.22;;;21.60;50.40;;;;;;4930556;29;20040;-53
2022/08/28 01:43:25;;;;;;;3.58;2.17;;;21.60;50.60;;;;;;4930851;29;20048;-52
2022/08/28 01:45:56;;;;;;;5.28;2.25;;;21.60;50.50;;;;;;4934249;29;20054;-50
2022/08/28 01:48:26;;;;;;;6.85;3.05;;;21.60;50.70;;;;;;4930924;29;20047;-48
2022/08/28 01:50:55;;;;;;;7.00;2.22;;;21.60;50.60;;;;;;4928050;29;20091;-49
2022/08/28 01:53:25;;;;;;;4.93;3.22;;;21.50;50.50;;;;;;4932753;29;20055;-50
2022/08/28 01:56:04;;;;;;;4.32;2.40;;;21.50;50.50;;;;;;4934020;29;20050;-50
2022/08/28 01:58:51;;;;;;;5.07;2.75;;;21.50;50.40;;;;;;4927358;29;20142;-50
2022/08/28 02:01:23;;;;;;;5.43;2.40;;;21.50;50.40;;;;;;4933526;29;20046;-49
2022/08/28 02:03:52;;;;;;;5.78;3.35;;;21.50;50.50;;;;;;4932623;29;20061;-50
2022/08/28 02:06:19;;;;;;;7.05;3.38;;;21.50;50.50;;;;;;4933219;29;20048;-50
2022/08/28 02:08:48;;;;;;;6.68;3.67;;;21.40;50.60;;;;;;4927893;29;20040;-51
2022/08/28 02:11:16;;;;;;;7.25;2.95;;;21.40;50.60;;;;;;4933012;29;20099;-48
2022/08/28 02:13:52;;;;;;;4.60;2.80;;;21.40;50.60;;;;;;4931511;29;20496;-52
2022/08/28 02:16:21;;;;;;;5.25;2.92;;;21.30;50.50;;;;;;4929721;29;20756;-51
2022/08/28 02:18:51;;;;;;;5.18;2.97;;;21.30;50.70;;;;;;4924131;29;20131;-49
2022/08/28 02:21:19;;;;;;;10.00;3.15;;;21.30;50.70;;;;;;4933962;28;20047;-53
2022/08/28 02:23:46;;;;;;;5.50;3.13;;;21.30;50.80;;;;;;4933178;29;20708;-51
2022/08/28 02:26:13;;;;;;;6.90;2.67;;;21.20;50.90;;;;;;4928612;29;20052;-52
2022/08/28 02:28:41;;;;;;;6.43;3.03;;;21.20;51.10;;;;;;4926864;29;20043;-51
2022/08/28 02:31:10;;;;;;;6.97;2.95;;;21.10;51.00;;;;;;4932898;29;20043;-50
2022/08/28 02:33:43;;;;;;;5.65;2.97;;;21.10;51.10;;;;;;4931752;29;20135;-52
2022/08/28 02:36:14;;;;;;;5.10;2.58;;;21.10;51.40;;;;;;4926576;29;20054;-48
2022/08/28 02:38:45;;;;;;;11.00;3.88;;;21.00;51.30;;;;;;4932306;29;20036;-50
2022/08/28 02:41:16;;;;;;;6.32;3.10;;;21.00;51.30;;;;;;4933143;29;20046;-52
2022/08/28 02:43:43;;;;;;;6.18;3.25;;;21.00;51.50;;;;;;4930522;29;20048;-52
2022/08/28 02:46:12;;;;;;;7.13;3.30;;;20.90;51.40;;;;;;4929952;29;20047;-51
2022/08/28 02:48:39;;;;;;;8.07;3.08;;;20.90;51.50;;;;;;4932386;29;20077;-50
2022/08/28 02:51:12;;;;;;;6.60;2.78;;;20.80;51.50;;;;;;4929328;29;20079;-47
2022/08/28 02:53:42;;;;;;;8.57;3.42;;;20.80;51.70;;;;;;4929441;29;20048;-51
2022/08/28 02:56:12;;;;;;;4.72;2.78;;;20.80;51.70;;;;;;4932154;29;20039;-51
2022/08/28 02:58:39;;;;;;;6.15;2.83;;;20.80;51.90;;;;;;4931364;29;20051;-52
2022/08/28 03:01:10;;;;;;;10.25;3.70;;;20.80;51.90;;;;;;4933310;29;20048;-50
2022/08/28 03:03:38;;;;;;;11.57;4.70;;;20.70;51.90;;;;;;4929430;29;20052;-49
2022/08/28 03:06:11;;;;;;;6.13;2.92;;;20.70;52.00;;;;;;4931495;29;20044;-48
2022/08/28 03:08:41;;;;;;;6.82;3.28;;;20.60;52.10;;;;;;4932285;29;20056;-50
2022/08/28 03:11:09;;;;;;;6.32;3.40;;;20.60;52.10;;;;;;4932924;29;20048;-52
2022/08/28 03:13:36;;;;;;;9.30;4.07;;;20.60;52.20;;;;;;4927897;29;20048;-51
2022/08/28 03:16:03;;;;;;;7.30;2.85;;;20.50;52.30;;;;;;4932784;29;20036;-49
2022/08/28 03:18:33;;;;;;;7.80;3.85;;;20.50;52.40;;;;;;4930657;29;20044;-48
2022/08/28 03:21:00;;;;;;;8.55;2.60;;;20.40;52.50;;;;;;4933029;29;20090;-51
2022/08/28 03:23:27;;;;;;;10.40;3.55;;;20.40;52.70;;;;;;4926287;29;20084;-49
2022/08/28 03:26:00;;;;;;;11.73;3.53;;;20.30;52.80;;;;;;4932541;29;20513;-50
2022/08/28 03:28:30;;;;;;;5.53;2.97;;;20.30;53.10;;;;;;4925412;29;20103;-49
2022/08/28 03:30:57;;;;;;;7.75;3.10;;;20.30;53.20;;;;;;4931678;29;20047;-48
2022/08/28 03:33:32;;;;;;;9.95;3.47;;;20.30;53.30;;;;;;4930253;29;20134;-49
2022/08/28 03:35:59;;;;;;;9.15;3.28;;;20.30;53.30;;;;;;4932720;29;20059;-49
2022/08/28 03:38:30;;;;;;;6.97;3.13;;;20.30;53.50;;;;;;4932150;29;20102;-52
2022/08/28 03:41:00;;;;;;;6.43;3.30;;;20.20;53.60;;;;;;4929630;29;20067;-49
2022/08/28 03:43:28;;;;;;;5.97;3.17;;;20.20;53.70;;;;;;4931965;29;20052;-48
2022/08/28 03:46:03;;;;;;;8.68;3.03;;;20.20;53.80;;;;;;4932592;29;20063;-49
2022/08/28 03:48:35;;;;;;;6.53;3.08;;;20.20;54.00;;;;;;4935208;29;20453;-50
2022/08/28 03:51:12;;;;;;;8.98;3.60;;;20.20;54.10;;;;;;4928074;29;20056;-47
2022/08/28 03:53:44;;;;;;;7.18;3.05;;;20.10;54.00;;;;;;4934443;29;20065;-48
2022/08/28 03:56:17;;;;;;;7.30;2.97;;;20.10;54.00;;;;;;4936218;29;20115;-50
2022/08/28 03:58:44;;;;;;;9.68;3.13;;;20.10;54.20;;;;;;4932426;29;20571;-49
2022/08/28 04:01:11;;;;;;;9.85;3.00;;;20.10;54.20;;;;;;4934708;29;20044;-49
2022/08/28 04:03:43;;;;;;;6.55;3.05;;;20.00;54.30;;;;;;4934643;29;20079;-50
2022/08/28 04:06:13;;;;;;;8.35;3.58;;;20.00;54.50;;;;;;4935710;29;20055;-52
2022/08/28 04:08:40;;;;;;;7.28;2.72;;;20.00;54.60;;;;;;4927670;29;20068;-51
2022/08/28 04:11:07;;;;;;;7.43;2.97;;;20.10;54.70;;;;;;4934748;29;20039;-51
2022/08/28 04:13:37;;;;;;;5.45;2.70;;;20.00;54.70;;;;;;4934644;29;20044;-48
2022/08/28 04:16:17;;;;;;;8.30;3.45;;;20.00;54.70;;;;;;4933000;29;20043;-48
2022/08/28 04:18:46;;;;;;;7.15;3.17;;;20.00;54.90;;;;;;4920644;29;20051;-52
2022/08/28 04:21:22;;;;;;;6.57;3.17;;;20.00;54.70;;;;;;4934959;29;20078;-52
2022/08/28 04:23:49;;;;;;;8.13;3.47;;;20.00;55.00;;;;;;4930553;29;20118;-52
2022/08/28 04:26:24;;;;;;;6.53;3.30;;;20.00;54.90;;;;;;4935560;29;20040;-52
2022/08/28 04:28:53;;;;;;;5.38;3.20;;;20.00;55.10;;;;;;4929903;29;20460;-48
2022/08/28 04:31:24;;;;;;;7.18;3.33;;;20.00;55.00;;;;;;4933929;29;20060;-49
2022/08/28 04:34:03;;;;;;;4.47;2.70;;;20.00;55.00;;;;;;4934737;29;20493;-52
2022/08/28 04:36:32;;;;;;;4.88;2.60;;;20.00;55.00;;;;;;4934850;29;20051;-49
2022/08/28 04:39:04;;;;;;;5.20;3.70;;;20.00;55.00;;;;;;4930087;29;20050;-48
2022/08/28 04:41:32;;;;;;;8.27;2.97;;;20.00;55.20;;;;;;4935190;29;20504;-49
2022/08/28 04:44:01;;;;;;;5.43;3.33;;;20.00;55.20;;;;;;4934969;29;20136;-49
2022/08/28 04:46:30;;;;;;;5.67;2.97;;;20.00;55.20;;;;;;4929935;29;20040;-48
2022/08/28 04:49:00;;;;;;;6.10;3.10;;;20.00;55.20;;;;;;4933955;29;20050;-51
2022/08/28 04:51:27;;;;;;;7.93;3.20;;;20.00;55.20;;;;;;4931424;29;20107;-48
2022/08/28 04:53:54;;;;;;;5.95;2.92;;;20.00;55.20;;;;;;4935010;29;20040;-49
2022/08/28 04:56:28;;;;;;;5.72;3.03;;;20.00;55.10;;;;;;4935959;29;20051;-48
2022/08/28 04:59:05;;;;;;;4.55;3.03;;;20.00;55.20;;;;;;4934729;29;20040;-48
2022/08/28 05:01:32;;;;;;;7.05;3.22;;;20.00;55.20;;;;;;4935739;29;20051;-49
2022/08/28 05:04:01;;;;;;;7.05;3.05;;;20.00;55.20;;;;;;4934815;29;20050;-48
2022/08/28 05:06:30;;;;;;;9.00;3.38;;;20.00;55.30;;;;;;4930960;29;20056;-51
2022/08/28 05:09:00;;;;;;;5.70;3.10;;;20.00;55.30;;;;;;4934538;29;20118;-51
2022/08/28 05:11:31;;;;;;;8.57;3.05;;;20.00;55.40;;;;;;4935458;29;20040;-52
2022/08/28 05:14:05;;;;;;;5.72;3.47;;;20.00;56.10;;;;;;4929210;29;20040;-51
2022/08/28 05:16:43;;;;;;;6.22;3.25;;;20.10;55.50;;;;;;4934633;29;20066;-52
2022/08/28 05:19:11;;;;;;;8.45;3.30;;;20.00;55.30;;;;;;4918099;29;20519;-52
2022/08/28 05:21:38;;;;;;;6.60;2.97;;;20.00;55.30;;;;;;4933882;29;20036;-49
2022/08/28 05:24:08;;;;;;;6.60;3.13;;;20.00;55.30;;;;;;4927333;29;20048;-52
2022/08/28 05:26:36;;;;;;;5.95;3.35;;;20.00;55.40;;;;;;4934922;29;20094;-46
2022/08/28 05:29:08;;;;;;;7.05;2.95;;;20.00;55.30;;;;;;4933934;29;20060;-49
2022/08/28 05:31:38;;;;;;;4.95;2.95;;;20.00;55.40;;;;;;4934458;29;20039;-50
2022/08/28 05:34:09;;;;;;;9.10;4.13;;;20.00;55.50;;;;;;4928341;29;20092;-48
2022/08/28 05:36:37;;;;;;;5.82;3.58;;;20.00;55.60;;;;;;4934626;29;20136;-51
2022/08/28 05:39:09;;;;;;;4.88;2.60;;;20.00;55.60;;;;;;4933522;29;20556;-52
2022/08/28 05:41:38;;;;;;;5.43;2.50;;;20.00;55.70;;;;;;4931202;29;20051;-51
2022/08/28 05:44:08;;;;;;;5.40;3.30;;;20.00;55.70;;;;;;4929557;29;20229;-52
2022/08/28 05:46:42;;;;;;;5.88;3.08;;;20.00;56.00;;;;;;4934706;29;20487;-51
2022/08/28 05:49:12;;;;;;;7.72;3.95;;;20.00;55.80;;;;;;4934214;29;20047;-50
2022/08/28 05:51:42;;;;;;;3.67;2.28;;;20.00;55.80;;;;;;4930954;29;20448;-50
2022/08/28 05:54:10;;;;;;;4.95;2.58;;;20.00;55.80;;;;;;4932944;29;20155;-48
2022/08/28 05:56:39;;;;;;;4.45;2.53;;;20.10;55.80;;;;;;4934572;29;20051;-49
2022/08/28 05:59:12;;;;;;;6.20;2.63;;;20.10;55.90;;;;;;4928324;29;20056;-53
2022/08/28 06:01:42;;;;;;;8.45;3.08;;;20.10;56.20;;;;;;4931021;29;20044;-49
2022/08/28 06:04:16;;;;;;;4.40;2.78;;;20.10;55.70;;;;;;4928377;29;20055;-47
2022/08/28 06:06:48;;;;;;;4.85;2.72;;;20.20;55.60;;;;;;4919539;29;20039;-49
2022/08/28 06:09:21;;;;;;;7.65;3.30;;;20.10;55.40;;;;;;4920040;29;20044;-49
2022/08/28 06:11:59;;;;;;;6.55;3.67;;;20.20;55.50;;;;;;4923551;29;20067;-49
2022/08/28 06:14:28;;;;;;;3.72;2.63;;;20.10;55.40;;;;;;4919574;29;20039;-50
2022/08/28 06:16:56;;;;;;;7.03;3.10;;;20.20;55.40;;;;;;4920327;29;20071;-49
2022/08/28 06:19:25;;;;;;;7.28;3.15;;;20.20;55.40;;;;;;4931414;29;20044;-51
2022/08/28 06:21:57;;;;;;;5.63;2.60;;;20.20;55.60;;;;;;4929019;29;20035;-52
2022/08/28 06:24:26;;;;;;;5.50;3.22;;;20.20;55.80;;;;;;4926374;29;20047;-52
2022/08/28 06:26:53;;;;;;;5.90;3.05;;;20.20;55.60;;;;;;4933440;29;20047;-50
2022/08/28 06:29:26;;;;;;;6.03;3.05;;;20.20;55.80;;;;;;4930764;29;20123;-50
2022/08/28 06:31:54;;;;;;;6.68;3.13;;;20.20;55.70;;;;;;4929653;29;20099;-52
2022/08/28 06:34:21;;;;;;;5.55;2.75;;;20.20;55.50;;;;;;4922018;29;20044;-48
2022/08/28 06:36:48;;;;;;;7.03;2.67;;;20.20;55.60;;;;;;4932037;29;20051;-52
2022/08/28 06:39:19;;;;;;;6.82;2.75;;;20.30;55.50;;;;;;4925669;29;20115;-48
2022/08/28 06:41:46;;;;;;;5.68;2.65;;;20.30;55.60;;;;;;4931651;29;20110;-52
2022/08/28 06:44:18;;;;;;;5.32;2.60;;;20.30;55.60;;;;;;4931595;29;20067;-49
2022/08/28 06:46:47;;;;;;;6.38;3.60;;;20.30;55.40;;;;;;4931588;29;20051;-51
2022/08/28 06:49:13;;;;;;;7.63;2.50;;;20.30;56.10;;;;;;4926205;29;20760;-47
2022/08/28 06:51:41;;;;;;;5.20;2.60;;;20.20;55.40;;;;;;4923411;29;20051;-50
2022/08/28 06:54:08;;;;;;;7.13;2.83;;;20.20;55.40;;;;;;4930795;29;20055;-49
2022/08/28 06:56:35;;;;;;;4.93;2.63;;;20.10;55.50;;;;;;4931442;29;20047;-48
2022/08/28 06:59:02;;;;;;;8.05;3.10;;;20.20;55.60;;;;;;4923385;29;20048;-51
2022/08/28 07:01:32;;;;;;;5.95;2.63;;;20.10;55.70;;;;;;4932014;29;20099;-51
2022/08/28 07:04:07;;;;;;;5.55;2.50;;;20.10;55.80;;;;;;4929964;29;20055;-52
2022/08/28 07:06:38;;;;;;;5.38;3.03;;;20.10;56.00;;;;;;4930048;29;20127;-50
2022/08/28 07:09:07;;;;;;;5.15;2.17;;;20.10;56.00;;;;;;4927122;29;20048;-51
2022/08/28 07:11:35;;;;;;;5.55;2.45;;;20.10;55.90;;;;;;4931425;29;20036;-50
2022/08/28 07:14:03;;;;;;;6.88;3.05;;;20.10;55.90;;;;;;4929173;29;20079;-48
2022/08/28 07:16:36;;;;;;;6.45;2.15;;;20.10;55.90;;;;;;4927688;29;20055;-52
2022/08/28 07:19:08;;;;;;;7.22;2.80;;;20.10;56.10;;;;;;4928269;29;20071;-50
2022/08/28 07:21:37;;;;;;;;;;;20.10;56.10;;;;;;4927140;29;20040;-47
2022/08/28 07:24:06;;;;;;;5.97;2.20;;;20.20;55.80;;;;;;4934699;29;20587;-49
2022/08/28 07:26:34;;;;;;;7.40;2.42;;;20.10;55.60;;;;;;4932365;29;20044;-51
2022/08/28 07:29:03;;;;;;;3.50;2.00;;;20.10;55.60;;;;;;4932304;29;20040;-50
2022/08/28 07:31:42;;;;;;;6.13;3.40;;;20.10;55.70;;;;;;4934866;29;20075;-47
2022/08/28 07:34:10;;;;;;;4.13;2.05;;;20.20;55.70;;;;;;4933858;29;20035;-49
2022/08/28 07:36:38;;;;;;;5.90;2.17;;;20.20;55.40;;;;;;4930679;29;20643;-52
2022/08/28 07:39:05;;;;;;;4.93;2.35;;;20.20;55.40;;;;;;4935097;29;20039;-48
2022/08/28 07:41:35;;;;;;;5.63;2.20;;;20.20;55.50;;;;;;4927137;29;20040;-51
2022/08/28 07:46:53;;;;;;;7.63;2.67;;;20.30;55.40;;;;;;4932614;29;20052;-51
2022/08/28 07:49:20;;;;;;;5.85;1.85;;;20.30;55.40;;;;;;4926180;29;20047;-47
2022/08/28 07:51:50;;;;;;;7.32;1.90;;;20.30;55.40;;;;;;4930007;29;20096;-48
2022/08/28 07:54:23;;;;;;;7.35;2.63;;;20.30;55.30;;;;;;4925602;29;20564;-47
2022/08/28 07:56:58;;;;;;;3.95;2.00;;;20.40;55.10;;;;;;4933185;29;20044;-48
2022/08/28 07:59:28;;;;;;;4.78;2.10;;;20.40;55.00;;;;;;4935688;29;20048;-50
2022/08/28 08:02:04;;;;;;;6.35;1.95;;;20.50;54.90;;;;;;4930508;29;20044;-51
2022/08/28 08:04:32;;;;;;;6.53;2.20;;;20.60;54.80;;;;;;4936230;29;20122;-52
2022/08/28 08:07:04;;;;;;;5.78;2.15;;;20.80;54.70;;;;;;4936387;29;20075;-57
2022/08/28 08:09:38;;;;;;;5.07;1.90;;;20.80;54.50;;;;;;4936158;29;20056;-51
2022/08/28 08:12:15;;;;;;;4.20;1.55;;;20.90;54.20;;;;;;4924430;29;20052;-49
2022/08/28 08:14:44;;;;;;;6.65;2.25;;;21.00;54.00;;;;;;4932527;29;20090;-52
2022/08/28 08:17:11;;;;;;;7.63;2.85;;;21.00;53.80;;;;;;4933750;29;20044;-50
2022/08/28 08:19:38;;;;;;;4.35;1.58;;;21.20;53.70;;;;;;4921234;29;20048;-49
2022/08/28 08:22:06;;;;;;;6.50;1.90;;;21.20;53.60;;;;;;4932670;29;20051;-47
2022/08/28 08:24:32;;;;;;;4.13;1.42;;;21.30;53.60;;;;;;4935920;29;20055;-50
2022/08/28 08:27:01;;;;;;;4.45;2.13;;;21.40;53.20;;;;;;4935765;29;20102;-48
2022/08/28 08:29:34;;;;;;;4.18;1.70;;;21.50;53.00;;;;;;4932917;29;20044;-50
2022/08/28 08:32:10;;;;;;;4.75;1.73;;;21.60;52.60;;;;;;4929091;29;20039;-52
2022/08/28 08:34:42;;;;;;;6.65;1.83;;;21.70;52.50;;;;;;4935371;29;20099;-49
2022/08/28 08:37:12;;;;;;;;;;;21.80;52.40;;;;;;4930481;29;20040;-50
2022/08/28 08:39:42;;;;;;;5.97;2.03;;;21.90;52.70;;;;;;4934775;29;19922;-51
2022/08/28 08:42:21;;;;;;;4.30;2.17;;;21.90;52.20;;;;;;4935866;29;20516;-50
2022/08/28 08:44:53;;;;;;;5.68;2.40;;;21.90;51.30;;;;;;4930461;29;20048;-51
2022/08/28 08:47:39;;;;;;;5.68;2.40;;;22.00;51.40;;;;;;4927929;29;20524;-49
2022/08/28 08:50:12;;;;;;;3.72;2.20;;;21.90;51.10;;;;;;4930580;29;20399;-48
2022/08/28 08:53:21;;;;;;;5.38;1.75;;;21.90;51.10;;;;;;4933217;29;20055;-49
2022/08/28 08:55:55;;;;;;;7.75;3.13;;;21.90;51.00;;;;;;4930225;29;20127;-48
2022/08/28 08:58:28;;;;;;;6.43;2.72;;;21.80;51.10;;;;;;4934240;29;20071;-50
2022/08/28 09:01:15;;;;;;;3.20;2.00;;;21.70;51.00;;;;;;4931042;29;20091;-49
2022/08/28 09:04:00;;;;;;;5.15;1.92;;;21.60;51.10;;;;;;4934299;29;20099;-49
2022/08/28 09:06:49;;;;;;;5.55;2.40;;;21.60;51.10;;;;;;4935556;29;20093;-52
2022/08/28 09:09:25;;;;;;;4.28;1.95;;;21.60;51.30;;;;;;4929304;29;20044;-49
2022/08/28 09:12:05;;;;;;;5.57;2.58;;;21.60;51.10;;;;;;4931224;29;20044;-48
2022/08/28 09:14:56;;;;;;;6.72;2.53;;;21.60;50.30;;;;;;4928371;29;20139;-48
2022/08/28 09:17:40;;;;;;;3.75;1.80;;;21.60;50.50;;;;;;4930484;29;20044;-50
2022/08/28 09:20:11;;;;;;;3.13;1.88;;;21.60;50.50;;;;;;4925363;29;20103;-48
2022/08/28 09:22:42;;;;;;;4.82;2.40;;;21.60;50.50;;;;;;4931672;29;20504;-47
2022/08/28 09:25:12;;;;;;;4.93;2.13;;;21.60;50.40;;;;;;4934732;29;20143;-50
2022/08/28 09:27:51;;;;;;;5.32;1.88;;;21.60;50.30;;;;;;4928755;29;20039;-52
2022/08/28 09:30:30;;;;;;;6.10;2.13;;;21.60;50.30;;;;;;4926825;29;20066;-47
2022/08/28 09:32:59;;;;;;;3.97;2.08;;;21.60;49.90;;;;;;4934599;29;20402;-50
2022/08/28 09:35:32;;;;;;;3.08;1.83;;;21.60;50.30;;;;;;4914786;29;20414;-48
2022/08/28 09:38:37;;;;;;;4.80;1.75;;;21.60;49.70;;;;;;4930361;29;20040;-48
2022/08/28 09:43:56;;;;;;;6.70;2.10;;;21.70;49.00;;;;;;4908330;29;20052;-51
2022/08/28 09:46:28;;;;;;;5.88;1.60;;;21.80;49.20;;;;;;4923493;29;20142;-49
2022/08/28 09:49:11;;;;;;;;;;;21.80;49.10;;;;;;4933063;29;20592;-48
2022/08/28 09:51:38;;;;;;;3.78;1.80;;;21.90;49.50;;;;;;4923382;29;19923;-49
2022/08/28 09:54:15;;;;;;;4.55;2.08;;;21.90;49.30;;;;;;4916610;29;20454;-47
2022/08/28 09:56:43;;;;;;;6.32;1.70;;;21.90;49.10;;;;;;4933579;29;20040;-50
2022/08/28 09:59:16;;;;;;;6.75;1.63;;;22.00;49.00;;;;;;4930987;29;20415;-50
2022/08/28 10:01:47;;;;;;;3.47;1.70;;;22.00;48.50;;;;;;4922069;29;20048;-49
2022/08/28 10:04:27;;;;;;;4.90;1.90;;;22.10;48.70;;;;;;4920955;29;20409;-49
2022/08/28 10:07:21;;;;;;;4.38;1.60;;;22.10;48.80;;;;;;4928545;29;20056;-48
2022/08/28 10:10:15;;;;;;;2.30;1.40;;;22.20;48.70;;;;;;4933710;29;20052;-50
2022/08/28 10:13:00;;;;;;;2.90;1.40;;;22.30;48.50;;;;;;4931952;29;20047;-49
2022/08/28 10:15:32;;;;;;;4.97;1.50;;;22.40;48.20;;;;;;4927587;29;20087;-47
2022/08/28 10:18:14;;;;;;;3.55;1.27;;;22.40;48.30;;;;;;4925518;29;20044;-48
2022/08/28 10:20:51;;;;;;;5.00;1.57;;;22.50;48.00;;;;;;4921595;29;20036;-46
2022/08/28 10:23:55;;;;;;;3.85;1.67;;;22.70;47.60;;;;;;4933268;29;20044;-48
2022/08/28 10:26:26;;;;;;;2.30;1.60;;;22.70;47.80;;;;;;4940639;29;20143;-51
2022/08/28 10:29:11;;;;;;;4.28;1.73;;;22.70;47.90;;;;;;4947725;28;20122;-51
2022/08/28 10:31:38;;;;;;;3.17;1.45;;;22.80;47.90;;;;;;4922658;29;20040;-47
2022/08/28 10:34:30;;;;;;;3.50;1.90;;;22.80;48.00;;;;;;4934729;29;20035;-50
2022/08/28 10:37:08;;;;;;;3.35;2.15;;;22.90;47.90;;;;;;4928634;29;20115;-50
2022/08/28 10:39:56;;;;;;;3.58;2.08;;;22.90;46.90;;;;;;4932658;29;20052;-50
2022/08/28 10:42:31;;;;;;;2.97;1.42;;;23.00;46.80;;;;;;4928927;29;20080;-52
2022/08/28 10:45:13;;;;;;;1.95;1.48;;;23.00;46.70;;;;;;4929393;29;20047;-52
2022/08/28 10:47:45;;;;;;;4.35;1.92;;;22.90;46.80;;;;;;4933394;29;20094;-49
2022/08/28 10:50:25;;;;;;;6.57;1.80;;;22.90;46.50;;;;;;4932982;29;20118;-52
2022/08/28 10:53:01;;;;;;;3.08;1.40;;;22.90;46.40;;;;;;4924717;29;20048;-46
2022/08/28 10:55:41;;;;;;;2.45;1.40;;;23.00;46.30;;;;;;4927366;29;20103;-50
2022/08/28 10:58:13;;;;;;;2.95;1.33;;;23.00;46.30;;;;;;4927825;29;20047;-49
2022/08/28 11:00:59;;;;;;;5.40;1.25;;;23.00;46.60;;;;;;4925070;29;20047;-49
2022/08/28 11:03:29;;;;;;;5.43;1.05;;;23.10;46.70;;;;;;4926823;29;20056;-49
2022/08/28 11:06:17;;;;;;;7.03;1.27;;;23.10;46.70;;;;;;4928286;29;20058;-51
2022/08/28 11:08:51;;;;;;;2.83;1.45;;;23.20;46.30;;;;;;4927318;29;20055;-48
2022/08/28 11:11:45;;;;;;;3.38;1.33;;;23.30;46.20;;;;;;4933472;29;20055;-51
2022/08/28 11:14:23;;;;;;;2.45;1.30;;;23.30;46.40;;;;;;4931449;29;20055;-53
2022/08/28 11:16:53;;;;;;;1.95;1.17;;;23.30;45.60;;;;;;4931637;29;20043;-49
2022/08/28 11:19:36;;;;;;;2.08;1.60;;;23.40;45.70;;;;;;4920695;29;20397;-49
2022/08/28 11:22:13;;;;;;;2.67;1.15;;;23.40;45.90;;;;;;4929872;29;20058;-48
2022/08/28 11:25:00;;;;;;;8.68;2.10;;;23.50;45.90;;;;;;4932982;29;20052;-48
2022/08/28 11:27:35;;;;;;;5.50;1.40;;;23.50;45.30;;;;;;4927884;29;20059;-52
2022/08/28 11:30:08;;;;;;;4.38;1.40;;;23.60;45.80;;;;;;4931652;29;20115;-50
2022/08/28 11:32:53;;;;;;;4.75;1.30;;;23.70;45.80;;;;;;4932821;29;20496;-47
2022/08/28 11:35:34;;;;;;;3.42;1.42;;;23.70;45.60;;;;;;4930530;29;20050;-52
2022/08/28 11:38:01;;;;;;;2.65;1.30;;;23.80;45.40;;;;;;4930499;29;20103;-49
2022/08/28 11:40:30;;;;;;;2.78;1.30;;;23.90;45.20;;;;;;4923151;29;20095;-49
2022/08/28 11:43:13;;;;;;;4.90;1.77;;;24.00;44.80;;;;;;4932334;29;20581;-52
2022/08/28 11:45:42;;;;;;;6.05;2.05;;;24.00;44.40;;;;;;4930607;29;20059;-50
2022/08/28 11:48:22;;;;;;;7.20;1.45;;;24.00;44.40;;;;;;4916168;29;20040;-47
2022/08/28 11:51:01;;;;;;;3.13;1.27;;;24.10;43.70;;;;;;4926916;29;20060;-47
2022/08/28 11:53:46;;;;;;;2.33;1.35;;;24.10;43.50;;;;;;4925690;29;20052;-48
2022/08/28 11:56:24;;;;;;;3.40;1.05;;;24.20;43.60;;;;;;4929959;29;20036;-51
2022/08/28 11:59:24;;;;;;;2.60;1.13;;;24.20;43.90;;;;;;4925936;29;20504;-52
2022/08/28 12:02:35;;;;;;;2.40;1.30;;;24.30;43.70;;;;;;4928645;29;20054;-48
2022/08/28 12:05:26;;;;;;;3.17;1.38;;;24.40;43.70;;;;;;4920897;29;20095;-49
2022/08/28 12:07:53;;;;;;;2.22;0.93;;;24.40;43.30;;;;;;4923705;29;20092;-50
2022/08/28 12:10:23;;;;;;;2.63;1.10;;;24.50;43.70;;;;;;4926180;29;20107;-49
2022/08/28 12:12:59;;;;;;;3.97;0.98;;;24.50;43.30;;;;;;4916985;29;20080;-50
2022/08/28 12:15:28;;;;;;;8.60;1.88;;;24.60;42.90;;;;;;4917450;29;20147;-46
2022/08/28 12:18:11;;;;;;;3.92;1.55;;;24.70;42.60;;;;;;4928266;29;20044;-53
2022/08/28 12:20:58;;;;;;;1.83;1.10;;;24.70;42.20;;;;;;4926125;29;20051;-56
2022/08/28 12:23:42;;;;;;;1.55;1.00;;;24.80;41.90;;;;;;4929684;29;20052;-56
2022/08/28 12:26:25;;;;;;;4.07;1.20;;;24.90;41.40;;;;;;4932215;29;20052;-55
2022/08/28 12:28:58;;;;;;;3.53;1.25;;;24.90;41.70;;;;;;4934127;29;20059;-55
2022/08/28 12:32:15;;;;;;;3.47;1.17;;;24.90;41.60;;;;;;4933445;29;20052;-54
2022/08/28 12:34:28;;;;;;;2.08;1.20;;;25.00;41.90;;;;;;4931424;28;20075;-56
2022/08/28 12:37:04;;;;;;;2.85;1.00;;;25.00;41.60;;;;;;4929641;29;20095;-56
2022/08/28 12:39:36;;;;;;;3.10;1.30;;;25.10;41.60;;;;;;4933980;29;20070;-55
2022/08/28 12:42:03;;;;;;;3.10;1.20;;;25.20;41.20;;;;;;4933983;29;20059;-53
2022/08/28 12:44:32;;;;;;;5.35;1.25;;;25.20;41.10;;;;;;4931296;29;20398;-56
2022/08/28 12:46:59;;;;;;;2.90;1.73;;;25.30;40.80;;;;;;4933708;29;20082;-55
2022/08/28 12:49:32;;;;;;;3.33;1.60;;;25.30;40.80;;;;;;4933697;29;20118;-56
2022/08/28 12:52:15;;;;;;;1.83;0.80;;;25.50;40.40;;;;;;4933920;29;20048;-56
2022/08/28 12:54:45;;;;;;;2.67;1.75;;;25.50;40.40;;;;;;4930416;29;20044;-56
2022/08/28 12:57:17;;;;;;;3.03;1.45;;;25.60;40.50;;;;;;4931701;29;20424;-54
2022/08/28 12:59:47;;;;;;;3.20;1.02;;;25.60;40.10;;;;;;4934199;29;20416;-47
2022/08/28 13:02:21;;;;;;;2.90;1.08;;;25.70;40.30;;;;;;4933991;29;20051;-47
2022/08/28 13:04:53;;;;;;;4.10;1.23;;;25.80;40.00;;;;;;4930712;29;20047;-49
2022/08/28 13:07:34;;;;;;;1.85;0.93;;;25.90;39.80;;;;;;4933484;29;20130;-46
2022/08/28 13:10:24;;;;;;;2.55;1.30;;;26.00;39.20;;;;;;4933718;29;20054;-48
2022/08/28 13:12:59;;;;;;;3.17;1.17;;;26.10;39.00;;;;;;4921838;28;20056;-50
2022/08/28 13:15:54;;;;;;;2.17;0.90;;;26.20;39.40;;;;;;4927162;29;20124;-47
2022/08/28 13:18:33;;;;;;;2.90;1.00;;;26.20;39.30;;;;;;4925577;29;20707;-48
2022/08/28 13:21:17;;;;;;;3.47;0.82;;;26.30;39.00;;;;;;4932054;29;20055;-46
2022/08/28 13:24:20;;;;;;;2.92;0.73;;;26.40;38.90;;;;;;4929861;29;20867;-47
2022/08/28 13:27:08;;;;;;;1.33;0.82;;;26.50;39.00;;;;;;4914195;29;20044;-47
2022/08/28 13:29:35;;;;;;;4.05;1.20;;;26.70;38.70;;;;;;4923909;29;20465;-51